sensor_id;sensor_type;location;lat;lon;timestamp;temperature;humidity
52943;DHT22;38809;53.300;6.614;2023-03-01T00:01:05;0.80;99.90
52943;DHT22;38809;53.300;6.614;2023-03-01T00:03:32;0.60;99.90
52943;DHT22;38809;53.300;6.614;2023-03-01T00:05:58;1.80;99.90
52943;DHT22;38809;53.300;6.614;2023-03-01T00:08:25;0.20;99.90
52943;DHT22;38809;53.300;6.614;2023-03-01T00:10:59;0.70;99.90
52943;DHT22;38809;53.300;6.614;2023-03-01T00:13:25;0.40;99.90
52943;DHT22;38809;53.300;6.614;2023-03-01T00:15:51;0.30;99.90
52943;DHT22;38809;53.300;6.614;2023-03-01T00:18:16;0.80;99.90
52943;DHT22;38809;53.300;6.614;2023-03-01T00:20:52;0.30;99.90
52943;DHT22;38809;53.300;6.614;2023-03-01T00:23:19;0.20;99.90
52943;DHT22;38809;53.300;6.614;2023-03-01T00:25:44;0.00;99.90
52943;DHT22;38809;53.300;6.614;2023-03-01T00:28:10;0.70;99.90
52943;DHT22;38809;53.300;6.614;2023-03-01T00:30:36;0.10;99.90
52943;DHT22;38809;53.300;6.614;2023-03-01T00:33:02;0.20;99.90
52943;DHT22;38809;53.300;6.614;2023-03-01T00:35:27;0.20;99.90
52943;DHT22;38809;53.300;6.614;2023-03-01T00:37:53;0.10;99.90
52943;DHT22;38809;53.300;6.614;2023-03-01T00:40:30;0.10;99.90
52943;DHT22;38809;53.300;6.614;2023-03-01T00:42:56;1.60;99.90
52943;DHT22;38809;53.300;6.614;2023-03-01T00:45:22;0.00;99.90
52943;DHT22;38809;53.300;6.614;2023-03-01T00:47:48;1.20;99.90
52943;DHT22;38809;53.300;6.614;2023-03-01T00:50:14;-0.10;99.90
52943;DHT22;38809;53.300;6.614;2023-03-01T00:52:40;-0.20;99.90
52943;DHT22;38809;53.300;6.614;2023-03-01T00:55:06;-0.20;99.90
52943;DHT22;38809;53.300;6.614;2023-03-01T00:57:32;0.00;99.90
52943;DHT22;38809;53.300;6.614;2023-03-01T00:59:59;-0.10;99.90
52943;DHT22;38809;53.300;6.614;2023-03-01T01:02:25;-0.20;99.90
52943;DHT22;38809;53.300;6.614;2023-03-01T01:04:51;-0.50;99.90
52943;DHT22;38809;53.300;6.614;2023-03-01T01:07:17;-0.60;99.90
52943;DHT22;38809;53.300;6.614;2023-03-01T01:09:43;1.20;99.90
52943;DHT22;38809;53.300;6.614;2023-03-01T01:12:09;-0.40;99.90
52943;DHT22;38809;53.300;6.614;2023-03-01T01:14:34;-0.30;99.90
52943;DHT22;38809;53.300;6.614;2023-03-01T01:17:00;1.10;99.90
52943;DHT22;38809;53.300;6.614;2023-03-01T01:19:26;-0.50;99.90
52943;DHT22;38809;53.300;6.614;2023-03-01T01:21:52;-0.60;99.90
52943;DHT22;38809;53.300;6.614;2023-03-01T01:24:18;-0.60;99.90
52943;DHT22;38809;53.300;6.614;2023-03-01T01:26:44;-0.70;99.90
52943;DHT22;38809;53.300;6.614;2023-03-01T01:29:11;-0.50;99.90
52943;DHT22;38809;53.300;6.614;2023-03-01T01:31:37;-0.50;99.90
52943;DHT22;38809;53.300;6.614;2023-03-01T01:34:06;-0.40;99.90
52943;DHT22;38809;53.300;6.614;2023-03-01T01:36:32;-0.30;99.90
52943;DHT22;38809;53.300;6.614;2023-03-01T01:38:58;-0.10;99.90
52943;DHT22;38809;53.300;6.614;2023-03-01T01:41:26;-0.30;99.90
52943;DHT22;38809;53.300;6.614;2023-03-01T01:51:45;-0.50;99.90
52943;DHT22;38809;53.300;6.614;2023-03-01T01:54:21;-0.30;99.90
52943;DHT22;38809;53.300;6.614;2023-03-01T01:56:52;-0.50;99.90
52943;DHT22;38809;53.300;6.614;2023-03-01T01:59:19;-0.20;99.90
52943;DHT22;38809;53.300;6.614;2023-03-01T02:01:53;0.10;99.90
52943;DHT22;38809;53.300;6.614;2023-03-01T02:04:19;-0.50;99.90
52943;DHT22;38809;53.300;6.614;2023-03-01T02:07:21;-0.40;99.90
52943;DHT22;38809;53.300;6.614;2023-03-01T02:09:39;-0.70;99.90
52943;DHT22;38809;53.300;6.614;2023-03-01T02:12:06;-0.90;99.90
52943;DHT22;38809;53.300;6.614;2023-03-01T02:14:32;1.10;99.90
52943;DHT22;38809;53.300;6.614;2023-03-01T02:16:58;-0.90;99.90
52943;DHT22;38809;53.300;6.614;2023-03-01T02:22:20;-0.90;99.90
52943;DHT22;38809;53.300;6.614;2023-03-01T02:27:43;-0.80;99.90
52943;DHT22;38809;53.300;6.614;2023-03-01T02:30:12;-1.00;99.90
52943;DHT22;38809;53.300;6.614;2023-03-01T02:32:40;0.30;99.90
52943;DHT22;38809;53.300;6.614;2023-03-01T02:35:10;-0.90;99.90
52943;DHT22;38809;53.300;6.614;2023-03-01T02:37:38;-0.40;99.90
52943;DHT22;38809;53.300;6.614;2023-03-01T02:40:09;-1.20;99.90
52943;DHT22;38809;53.300;6.614;2023-03-01T02:42:45;-1.20;99.90
52943;DHT22;38809;53.300;6.614;2023-03-01T02:45:12;-1.00;99.90
52943;DHT22;38809;53.300;6.614;2023-03-01T02:47:38;-1.00;99.90
52943;DHT22;38809;53.300;6.614;2023-03-01T02:51:02;-0.90;99.90
52943;DHT22;38809;53.300;6.614;2023-03-01T02:53:07;-0.80;99.90
52943;DHT22;38809;53.300;6.614;2023-03-01T02:55:34;-1.10;99.90
52943;DHT22;38809;53.300;6.614;2023-03-01T02:58:02;-0.90;99.90
52943;DHT22;38809;53.300;6.614;2023-03-01T03:00:35;-1.00;99.90
52943;DHT22;38809;53.300;6.614;2023-03-01T03:03:05;-1.40;99.90
52943;DHT22;38809;53.300;6.614;2023-03-01T03:05:31;-1.70;99.90
52943;DHT22;38809;53.300;6.614;2023-03-01T03:08:00;-1.80;99.90
52943;DHT22;38809;53.300;6.614;2023-03-01T03:10:28;-2.00;99.90
52943;DHT22;38809;53.300;6.614;2023-03-01T03:12:57;-1.90;99.90
52943;DHT22;38809;53.300;6.614;2023-03-01T03:15:24;-1.90;99.90
52943;DHT22;38809;53.300;6.614;2023-03-01T03:17:50;-1.80;99.90
52943;DHT22;38809;53.300;6.614;2023-03-01T03:20:18;-1.70;99.90
52943;DHT22;38809;53.300;6.614;2023-03-01T03:22:49;-1.80;99.90
52943;DHT22;38809;53.300;6.614;2023-03-01T03:25:17;-1.90;99.90
52943;DHT22;38809;53.300;6.614;2023-03-01T03:27:44;-2.20;99.90
52943;DHT22;38809;53.300;6.614;2023-03-01T03:30:12;-2.20;99.90
52943;DHT22;38809;53.300;6.614;2023-03-01T03:32:43;-2.50;99.90
52943;DHT22;38809;53.300;6.614;2023-03-01T03:35:23;-2.50;99.90
52943;DHT22;38809;53.300;6.614;2023-03-01T03:37:50;-2.30;99.90
52943;DHT22;38809;53.300;6.614;2023-03-01T03:43:22;-1.80;99.90
52943;DHT22;38809;53.300;6.614;2023-03-01T03:45:49;-2.10;99.90
52943;DHT22;38809;53.300;6.614;2023-03-01T03:48:16;-2.40;99.90
52943;DHT22;38809;53.300;6.614;2023-03-01T03:50:48;-2.30;99.90
52943;DHT22;38809;53.300;6.614;2023-03-01T03:53:15;-2.50;99.90
52943;DHT22;38809;53.300;6.614;2023-03-01T03:55:40;-2.60;99.90
52943;DHT22;38809;53.300;6.614;2023-03-01T03:58:08;-2.30;99.90
52943;DHT22;38809;53.300;6.614;2023-03-01T04:00:41;-2.10;99.90
52943;DHT22;38809;53.300;6.614;2023-03-01T04:03:08;-2.10;99.90
52943;DHT22;38809;53.300;6.614;2023-03-01T04:05:37;-1.90;99.90
52943;DHT22;38809;53.300;6.614;2023-03-01T04:08:04;-1.90;99.90
52943;DHT22;38809;53.300;6.614;2023-03-01T04:10:40;-1.80;99.90
52943;DHT22;38809;53.300;6.614;2023-03-01T04:13:08;-1.70;99.90
52943;DHT22;38809;53.300;6.614;2023-03-01T04:15:35;-1.50;99.90
52943;DHT22;38809;53.300;6.614;2023-03-01T04:18:02;-1.80;99.90
52943;DHT22;38809;53.300;6.614;2023-03-01T04:20:30;-2.10;99.90
52943;DHT22;38809;53.300;6.614;2023-03-01T04:22:59;-0.10;99.90
52943;DHT22;38809;53.300;6.614;2023-03-01T04:25:25;-2.00;99.90
52943;DHT22;38809;53.300;6.614;2023-03-01T04:27:51;-2.30;99.90
52943;DHT22;38809;53.300;6.614;2023-03-01T04:30:17;-2.20;99.90
52943;DHT22;38809;53.300;6.614;2023-03-01T04:32:43;-2.10;99.90
52943;DHT22;38809;53.300;6.614;2023-03-01T04:35:09;-0.50;99.90
52943;DHT22;38809;53.300;6.614;2023-03-01T04:37:35;-2.20;99.90
52943;DHT22;38809;53.300;6.614;2023-03-01T04:40:02;-2.10;99.90
52943;DHT22;38809;53.300;6.614;2023-03-01T04:42:37;-2.10;99.90
52943;DHT22;38809;53.300;6.614;2023-03-01T04:45:04;-2.10;99.90
52943;DHT22;38809;53.300;6.614;2023-03-01T04:47:39;-2.10;99.90
52943;DHT22;38809;53.300;6.614;2023-03-01T04:50:05;-2.40;99.90
52943;DHT22;38809;53.300;6.614;2023-03-01T04:52:31;-2.10;99.90
52943;DHT22;38809;53.300;6.614;2023-03-01T04:54:57;-0.10;99.90
52943;DHT22;38809;53.300;6.614;2023-03-01T04:57:22;-0.80;99.90
52943;DHT22;38809;53.300;6.614;2023-03-01T04:59:48;-2.00;99.90
52943;DHT22;38809;53.300;6.614;2023-03-01T05:02:14;-1.90;99.90
52943;DHT22;38809;53.300;6.614;2023-03-01T05:04:39;-2.10;99.90
52943;DHT22;38809;53.300;6.614;2023-03-01T05:07:05;-2.00;99.90
52943;DHT22;38809;53.300;6.614;2023-03-01T05:09:31;-1.90;99.90
52943;DHT22;38809;53.300;6.614;2023-03-01T05:11:56;-1.90;99.90
52943;DHT22;38809;53.300;6.614;2023-03-01T05:14:22;-2.00;99.90
52943;DHT22;38809;53.300;6.614;2023-03-01T05:16:48;-2.20;99.90
52943;DHT22;38809;53.300;6.614;2023-03-01T05:19:13;0.10;99.90
52943;DHT22;38809;53.300;6.614;2023-03-01T05:21:48;-0.60;99.90
52943;DHT22;38809;53.300;6.614;2023-03-01T05:24:31;-2.10;99.90
52943;DHT22;38809;53.300;6.614;2023-03-01T05:26:57;-0.90;99.90
52943;DHT22;38809;53.300;6.614;2023-03-01T05:29:24;-2.00;99.90
52943;DHT22;38809;53.300;6.614;2023-03-01T05:32:02;-2.00;99.90
52943;DHT22;38809;53.300;6.614;2023-03-01T05:34:31;-1.80;99.90
52943;DHT22;38809;53.300;6.614;2023-03-01T05:36:57;-1.80;99.90
52943;DHT22;38809;53.300;6.614;2023-03-01T05:39:25;-1.70;99.90
52943;DHT22;38809;53.300;6.614;2023-03-01T05:41:59;-1.70;99.90
52943;DHT22;38809;53.300;6.614;2023-03-01T05:44:26;-1.70;99.90
52943;DHT22;38809;53.300;6.614;2023-03-01T05:46:52;-1.40;99.90
52943;DHT22;38809;53.300;6.614;2023-03-01T05:49:18;-2.00;99.90
52943;DHT22;38809;53.300;6.614;2023-03-01T05:51:48;-2.00;99.90
52943;DHT22;38809;53.300;6.614;2023-03-01T05:54:14;-2.20;99.90
52943;DHT22;38809;53.300;6.614;2023-03-01T05:56:40;-2.00;99.90
52943;DHT22;38809;53.300;6.614;2023-03-01T05:59:06;-2.00;99.90
52943;DHT22;38809;53.300;6.614;2023-03-01T06:01:33;-2.00;99.90
52943;DHT22;38809;53.300;6.614;2023-03-01T06:03:59;-2.00;99.90
52943;DHT22;38809;53.300;6.614;2023-03-01T06:06:25;-2.00;99.90
52943;DHT22;38809;53.300;6.614;2023-03-01T06:08:51;0.20;99.90
52943;DHT22;38809;53.300;6.614;2023-03-01T06:11:17;-0.30;99.90
52943;DHT22;38809;53.300;6.614;2023-03-01T06:13:44;-1.10;99.90
52943;DHT22;38809;53.300;6.614;2023-03-01T06:16:10;-2.00;99.90
52943;DHT22;38809;53.300;6.614;2023-03-01T06:18:37;-2.00;99.90
52943;DHT22;38809;53.300;6.614;2023-03-01T06:21:03;-2.30;99.90
52943;DHT22;38809;53.300;6.614;2023-03-01T06:23:29;-2.80;99.90
52943;DHT22;38809;53.300;6.614;2023-03-01T06:25:55;-2.70;99.90
52943;DHT22;38809;53.300;6.614;2023-03-01T06:28:21;-2.70;99.90
52943;DHT22;38809;53.300;6.614;2023-03-01T06:30:47;-2.60;99.90
52943;DHT22;38809;53.300;6.614;2023-03-01T06:33:13;-2.40;99.90
52943;DHT22;38809;53.300;6.614;2023-03-01T06:35:39;-2.30;99.90
52943;DHT22;38809;53.300;6.614;2023-03-01T06:38:05;-2.60;99.90
52943;DHT22;38809;53.300;6.614;2023-03-01T06:40:31;-2.40;99.90
52943;DHT22;38809;53.300;6.614;2023-03-01T06:42:58;-2.10;99.90
52943;DHT22;38809;53.300;6.614;2023-03-01T06:45:24;-2.20;99.90
52943;DHT22;38809;53.300;6.614;2023-03-01T06:47:50;-2.40;99.90
52943;DHT22;38809;53.300;6.614;2023-03-01T06:50:16;-2.50;99.90
52943;DHT22;38809;53.300;6.614;2023-03-01T06:52:43;-2.30;99.90
52943;DHT22;38809;53.300;6.614;2023-03-01T06:55:11;-2.20;99.90
52943;DHT22;38809;53.300;6.614;2023-03-01T06:57:37;-2.50;99.90
52943;DHT22;38809;53.300;6.614;2023-03-01T07:00:06;-1.20;99.90
52943;DHT22;38809;53.300;6.614;2023-03-01T07:02:32;-2.10;99.90
52943;DHT22;38809;53.300;6.614;2023-03-01T07:04:58;-1.80;99.90
52943;DHT22;38809;53.300;6.614;2023-03-01T07:07:24;-2.10;99.90
52943;DHT22;38809;53.300;6.614;2023-03-01T07:09:49;-2.00;99.90
52943;DHT22;38809;53.300;6.614;2023-03-01T07:12:15;-1.90;99.90
52943;DHT22;38809;53.300;6.614;2023-03-01T07:14:43;-1.40;99.90
52943;DHT22;38809;53.300;6.614;2023-03-01T07:17:08;-1.80;99.90
52943;DHT22;38809;53.300;6.614;2023-03-01T07:19:34;-1.70;99.90
52943;DHT22;38809;53.300;6.614;2023-03-01T07:22:00;-0.80;99.90
52943;DHT22;38809;53.300;6.614;2023-03-01T07:24:26;0.40;99.90
52943;DHT22;38809;53.300;6.614;2023-03-01T07:26:52;-1.40;99.90
52943;DHT22;38809;53.300;6.614;2023-03-01T07:29:18;-1.50;99.90
52943;DHT22;38809;53.300;6.614;2023-03-01T07:31:45;-1.60;99.90
52943;DHT22;38809;53.300;6.614;2023-03-01T07:34:11;-1.20;99.90
52943;DHT22;38809;53.300;6.614;2023-03-01T07:36:37;0.50;99.90
52943;DHT22;38809;53.300;6.614;2023-03-01T07:39:03;-1.10;99.90
52943;DHT22;38809;53.300;6.614;2023-03-01T07:41:29;-1.10;99.90
52943;DHT22;38809;53.300;6.614;2023-03-01T07:43:55;-1.30;99.90
52943;DHT22;38809;53.300;6.614;2023-03-01T07:46:21;-1.20;99.90
52943;DHT22;38809;53.300;6.614;2023-03-01T07:48:47;-1.20;99.90
52943;DHT22;38809;53.300;6.614;2023-03-01T07:51:12;-1.00;99.90
52943;DHT22;38809;53.300;6.614;2023-03-01T07:53:38;-0.90;99.90
52943;DHT22;38809;53.300;6.614;2023-03-01T07:56:07;-0.80;99.90
52943;DHT22;38809;53.300;6.614;2023-03-01T07:58:37;-0.60;99.90
52943;DHT22;38809;53.300;6.614;2023-03-01T08:01:04;0.40;99.90
52943;DHT22;38809;53.300;6.614;2023-03-01T08:03:30;-0.40;99.90
52943;DHT22;38809;53.300;6.614;2023-03-01T08:05:59;-0.50;99.90
52943;DHT22;38809;53.300;6.614;2023-03-01T08:08:25;0.00;99.90
52943;DHT22;38809;53.300;6.614;2023-03-01T08:10:51;-0.10;99.90
52943;DHT22;38809;53.300;6.614;2023-03-01T08:13:17;-0.20;99.90
52943;DHT22;38809;53.300;6.614;2023-03-01T08:15:51;1.60;99.90
52943;DHT22;38809;53.300;6.614;2023-03-01T08:18:18;0.00;99.90
52943;DHT22;38809;53.300;6.614;2023-03-01T08:20:44;2.20;99.90
52943;DHT22;38809;53.300;6.614;2023-03-01T08:23:10;0.30;99.90
52943;DHT22;38809;53.300;6.614;2023-03-01T08:25:36;0.60;99.90
52943;DHT22;38809;53.300;6.614;2023-03-01T08:28:02;0.50;99.90
52943;DHT22;38809;53.300;6.614;2023-03-01T08:30:28;0.50;99.90
52943;DHT22;38809;53.300;6.614;2023-03-01T08:32:53;0.00;99.90
52943;DHT22;38809;53.300;6.614;2023-03-01T08:35:20;0.50;99.90
52943;DHT22;38809;53.300;6.614;2023-03-01T08:37:45;2.50;99.90
52943;DHT22;38809;53.300;6.614;2023-03-01T08:40:12;0.90;99.90
52943;DHT22;38809;53.300;6.614;2023-03-01T08:42:40;1.20;99.90
52943;DHT22;38809;53.300;6.614;2023-03-01T08:45:07;1.30;99.90
52943;DHT22;38809;53.300;6.614;2023-03-01T08:47:33;1.30;99.90
52943;DHT22;38809;53.300;6.614;2023-03-01T08:49:59;1.60;99.90
52943;DHT22;38809;53.300;6.614;2023-03-01T08:52:25;3.80;99.90
52943;DHT22;38809;53.300;6.614;2023-03-01T08:54:52;2.30;99.90
52943;DHT22;38809;53.300;6.614;2023-03-01T08:57:18;2.20;99.90
52943;DHT22;38809;53.300;6.614;2023-03-01T08:59:44;4.20;99.90
52943;DHT22;38809;53.300;6.614;2023-03-01T09:02:15;2.80;99.90
52943;DHT22;38809;53.300;6.614;2023-03-01T09:04:41;3.60;99.90
52943;DHT22;38809;53.300;6.614;2023-03-01T09:07:07;3.60;99.90
52943;DHT22;38809;53.300;6.614;2023-03-01T09:09:34;4.10;99.90
52943;DHT22;38809;53.300;6.614;2023-03-01T09:12:00;3.40;99.90
52943;DHT22;38809;53.300;6.614;2023-03-01T09:14:26;3.70;99.90
52943;DHT22;38809;53.300;6.614;2023-03-01T09:16:51;4.00;99.90
52943;DHT22;38809;53.300;6.614;2023-03-01T09:19:17;4.00;99.90
52943;DHT22;38809;53.300;6.614;2023-03-01T09:21:43;4.30;99.90
52943;DHT22;38809;53.300;6.614;2023-03-01T09:24:22;4.30;99.90
52943;DHT22;38809;53.300;6.614;2023-03-01T09:26:49;4.80;99.90
52943;DHT22;38809;53.300;6.614;2023-03-01T09:29:16;4.70;99.90
52943;DHT22;38809;53.300;6.614;2023-03-01T09:31:42;5.00;99.90
52943;DHT22;38809;53.300;6.614;2023-03-01T09:34:09;5.90;99.90
52943;DHT22;38809;53.300;6.614;2023-03-01T09:36:35;5.60;99.90
52943;DHT22;38809;53.300;6.614;2023-03-01T09:39:02;5.60;99.90
52943;DHT22;38809;53.300;6.614;2023-03-01T09:46:47;5.90;99.90
52943;DHT22;38809;53.300;6.614;2023-03-01T09:49:31;6.30;99.90
52943;DHT22;38809;53.300;6.614;2023-03-01T09:54:30;5.70;99.90
52943;DHT22;38809;53.300;6.614;2023-03-01T09:56:59;5.90;99.90
52943;DHT22;38809;53.300;6.614;2023-03-01T09:59:37;6.10;99.90
52943;DHT22;38809;53.300;6.614;2023-03-01T10:10:49;6.00;99.90
52943;DHT22;38809;53.300;6.614;2023-03-01T10:16:13;6.40;99.90
52943;DHT22;38809;53.300;6.614;2023-03-01T10:18:40;6.20;99.90
52943;DHT22;38809;53.300;6.614;2023-03-01T10:21:17;6.40;99.90
52943;DHT22;38809;53.300;6.614;2023-03-01T10:23:43;6.20;99.90
52943;DHT22;38809;53.300;6.614;2023-03-01T10:26:38;6.50;99.90
52943;DHT22;38809;53.300;6.614;2023-03-01T10:29:10;6.30;99.90
52943;DHT22;38809;53.300;6.614;2023-03-01T10:31:42;6.70;99.90
52943;DHT22;38809;53.300;6.614;2023-03-01T10:34:12;6.10;99.90
52943;DHT22;38809;53.300;6.614;2023-03-01T10:36:39;6.30;99.90
52943;DHT22;38809;53.300;6.614;2023-03-01T10:39:13;6.30;99.90
52943;DHT22;38809;53.300;6.614;2023-03-01T10:41:58;6.40;99.90
52943;DHT22;38809;53.300;6.614;2023-03-01T10:44:45;6.20;99.90
52943;DHT22;38809;53.300;6.614;2023-03-01T10:47:24;6.30;99.90
52943;DHT22;38809;53.300;6.614;2023-03-01T10:50:05;6.40;99.90
52943;DHT22;38809;53.300;6.614;2023-03-01T10:52:36;6.50;99.90
52943;DHT22;38809;53.300;6.614;2023-03-01T10:57:50;6.60;99.90
52943;DHT22;38809;53.300;6.614;2023-03-01T11:00:31;6.40;99.90
52943;DHT22;38809;53.300;6.614;2023-03-01T11:05:26;6.40;99.90
52943;DHT22;38809;53.300;6.614;2023-03-01T11:07:57;6.40;99.90
52943;DHT22;38809;53.300;6.614;2023-03-01T11:10:26;6.50;99.90
52943;DHT22;38809;53.300;6.614;2023-03-01T11:12:52;6.70;99.90
52943;DHT22;38809;53.300;6.614;2023-03-01T11:15:26;6.70;99.90
52943;DHT22;38809;53.300;6.614;2023-03-01T11:17:52;6.70;99.90
52943;DHT22;38809;53.300;6.614;2023-03-01T11:20:37;7.00;99.90
52943;DHT22;38809;53.300;6.614;2023-03-01T11:23:14;7.10;99.90
52943;DHT22;38809;53.300;6.614;2023-03-01T11:25:42;6.90;99.90
52943;DHT22;38809;53.300;6.614;2023-03-01T11:28:14;6.90;99.90
52943;DHT22;38809;53.300;6.614;2023-03-01T11:33:24;6.90;99.90
52943;DHT22;38809;53.300;6.614;2023-03-01T11:36:32;6.70;99.90
52943;DHT22;38809;53.300;6.614;2023-03-01T11:39:12;6.90;99.90
52943;DHT22;38809;53.300;6.614;2023-03-01T11:41:42;6.70;99.90
52943;DHT22;38809;53.300;6.614;2023-03-01T11:44:16;6.70;99.90
52943;DHT22;38809;53.300;6.614;2023-03-01T11:58:49;7.00;99.90
52943;DHT22;38809;53.300;6.614;2023-03-01T12:06:50;6.90;99.90
52943;DHT22;38809;53.300;6.614;2023-03-01T12:09:48;7.10;99.90
52943;DHT22;38809;53.300;6.614;2023-03-01T12:12:25;7.00;99.90
52943;DHT22;38809;53.300;6.614;2023-03-01T12:17:51;7.10;99.90
52943;DHT22;38809;53.300;6.614;2023-03-01T12:20:46;7.30;99.90
52943;DHT22;38809;53.300;6.614;2023-03-01T12:28:57;7.20;99.90
52943;DHT22;38809;53.300;6.614;2023-03-01T12:34:40;7.30;99.90
52943;DHT22;38809;53.300;6.614;2023-03-01T12:45:50;7.40;99.90
52943;DHT22;38809;53.300;6.614;2023-03-01T12:51:07;7.20;99.90
52943;DHT22;38809;53.300;6.614;2023-03-01T12:53:41;7.40;99.90
52943;DHT22;38809;53.300;6.614;2023-03-01T12:56:13;7.40;99.90
52943;DHT22;38809;53.300;6.614;2023-03-01T13:01:31;7.30;99.90
52943;DHT22;38809;53.300;6.614;2023-03-01T13:12:45;7.40;99.90
52943;DHT22;38809;53.300;6.614;2023-03-01T13:20:18;7.40;99.90
52943;DHT22;38809;53.300;6.614;2023-03-01T13:22:45;7.40;99.90
52943;DHT22;38809;53.300;6.614;2023-03-01T13:25:15;7.40;99.90
52943;DHT22;38809;53.300;6.614;2023-03-01T13:27:41;7.50;99.90
52943;DHT22;38809;53.300;6.614;2023-03-01T13:35:49;7.30;99.90
52943;DHT22;38809;53.300;6.614;2023-03-01T13:49:32;7.40;99.90
52943;DHT22;38809;53.300;6.614;2023-03-01T13:52:02;7.50;99.90
52943;DHT22;38809;53.300;6.614;2023-03-01T13:54:32;7.30;99.90
52943;DHT22;38809;53.300;6.614;2023-03-01T13:56:59;7.20;99.90
52943;DHT22;38809;53.300;6.614;2023-03-01T13:59:26;7.20;99.90
52943;DHT22;38809;53.300;6.614;2023-03-01T14:01:56;7.20;99.90
52943;DHT22;38809;53.300;6.614;2023-03-01T14:04:31;7.20;99.90
52943;DHT22;38809;53.300;6.614;2023-03-01T14:07:18;7.20;99.90
52943;DHT22;38809;53.300;6.614;2023-03-01T14:09:47;7.20;99.90
52943;DHT22;38809;53.300;6.614;2023-03-01T14:12:54;7.40;99.90
52943;DHT22;38809;53.300;6.614;2023-03-01T14:15:31;7.40;99.90
52943;DHT22;38809;53.300;6.614;2023-03-01T14:18:12;7.40;99.90
52943;DHT22;38809;53.300;6.614;2023-03-01T14:20:43;7.40;99.90
52943;DHT22;38809;53.300;6.614;2023-03-01T14:23:17;7.30;99.90
52943;DHT22;38809;53.300;6.614;2023-03-01T14:25:55;7.20;99.90
52943;DHT22;38809;53.300;6.614;2023-03-01T14:28:32;8.60;99.90
52943;DHT22;38809;53.300;6.614;2023-03-01T14:31:29;7.20;99.90
52943;DHT22;38809;53.300;6.614;2023-03-01T14:33:56;7.30;99.90
52943;DHT22;38809;53.300;6.614;2023-03-01T14:36:28;7.30;99.90
52943;DHT22;38809;53.300;6.614;2023-03-01T14:38:54;7.30;99.90
52943;DHT22;38809;53.300;6.614;2023-03-01T14:41:22;7.30;99.90
52943;DHT22;38809;53.300;6.614;2023-03-01T14:46:29;7.40;99.90
52943;DHT22;38809;53.300;6.614;2023-03-01T14:51:46;7.40;99.90
52943;DHT22;38809;53.300;6.614;2023-03-01T14:54:41;7.30;99.90
52943;DHT22;38809;53.300;6.614;2023-03-01T14:57:23;7.20;99.90
52943;DHT22;38809;53.300;6.614;2023-03-01T14:59:54;7.30;99.90
52943;DHT22;38809;53.300;6.614;2023-03-01T15:02:25;7.30;99.90
52943;DHT22;38809;53.300;6.614;2023-03-01T15:04:54;7.40;99.90
52943;DHT22;38809;53.300;6.614;2023-03-01T15:07:33;7.20;99.90
52943;DHT22;38809;53.300;6.614;2023-03-01T15:10:00;7.40;99.90
52943;DHT22;38809;53.300;6.614;2023-03-01T15:12:38;7.30;99.90
52943;DHT22;38809;53.300;6.614;2023-03-01T15:17:52;7.20;99.90
52943;DHT22;38809;53.300;6.614;2023-03-01T15:20:20;7.20;99.90
52943;DHT22;38809;53.300;6.614;2023-03-01T15:22:51;7.30;99.90
52943;DHT22;38809;53.300;6.614;2023-03-01T15:25:22;7.60;99.90
52943;DHT22;38809;53.300;6.614;2023-03-01T15:27:50;7.30;99.90
52943;DHT22;38809;53.300;6.614;2023-03-01T15:30:24;7.30;99.90
52943;DHT22;38809;53.300;6.614;2023-03-01T15:33:27;7.20;99.90
52943;DHT22;38809;53.300;6.614;2023-03-01T15:35:59;7.30;99.90
52943;DHT22;38809;53.300;6.614;2023-03-01T15:38:49;7.20;99.90
52943;DHT22;38809;53.300;6.614;2023-03-01T15:41:30;7.10;99.90
52943;DHT22;38809;53.300;6.614;2023-03-01T15:44:00;7.00;99.90
52943;DHT22;38809;53.300;6.614;2023-03-01T15:46:39;7.00;99.90
52943;DHT22;38809;53.300;6.614;2023-03-01T15:51:55;6.80;99.90
52943;DHT22;38809;53.300;6.614;2023-03-01T15:54:23;6.70;99.90
52943;DHT22;38809;53.300;6.614;2023-03-01T15:56:49;6.70;99.90
52943;DHT22;38809;53.300;6.614;2023-03-01T15:59:17;6.60;99.90
52943;DHT22;38809;53.300;6.614;2023-03-01T16:01:44;6.50;99.90
52943;DHT22;38809;53.300;6.614;2023-03-01T16:04:11;6.50;99.90
52943;DHT22;38809;53.300;6.614;2023-03-01T16:06:46;6.50;99.90
52943;DHT22;38809;53.300;6.614;2023-03-01T16:09:12;6.40;99.90
52943;DHT22;38809;53.300;6.614;2023-03-01T16:11:38;6.30;99.90
52943;DHT22;38809;53.300;6.614;2023-03-01T16:14:06;6.40;99.90
52943;DHT22;38809;53.300;6.614;2023-03-01T16:16:31;6.20;99.90
52943;DHT22;38809;53.300;6.614;2023-03-01T16:18:57;6.30;99.90
52943;DHT22;38809;53.300;6.614;2023-03-01T16:21:24;6.10;99.90
52943;DHT22;38809;53.300;6.614;2023-03-01T16:23:50;6.10;99.90
52943;DHT22;38809;53.300;6.614;2023-03-01T16:26:17;6.50;99.90
52943;DHT22;38809;53.300;6.614;2023-03-01T16:28:44;6.30;99.90
52943;DHT22;38809;53.300;6.614;2023-03-01T16:31:11;5.80;99.90
52943;DHT22;38809;53.300;6.614;2023-03-01T16:33:39;5.90;99.90
52943;DHT22;38809;53.300;6.614;2023-03-01T16:36:11;5.80;99.90
52943;DHT22;38809;53.300;6.614;2023-03-01T16:38:37;6.10;99.90
52943;DHT22;38809;53.300;6.614;2023-03-01T16:41:04;5.50;99.90
52943;DHT22;38809;53.300;6.614;2023-03-01T16:43:31;5.50;99.90
52943;DHT22;38809;53.300;6.614;2023-03-01T16:45:57;5.40;99.90
52943;DHT22;38809;53.300;6.614;2023-03-01T16:48:25;5.30;99.90
52943;DHT22;38809;53.300;6.614;2023-03-01T16:50:57;5.30;99.90
52943;DHT22;38809;53.300;6.614;2023-03-01T16:53:23;5.20;99.90
52943;DHT22;38809;53.300;6.614;2023-03-01T16:55:58;5.70;99.90
52943;DHT22;38809;53.300;6.614;2023-03-01T16:58:24;5.00;99.90
52943;DHT22;38809;53.300;6.614;2023-03-01T17:00:53;5.20;99.90
52943;DHT22;38809;53.300;6.614;2023-03-01T17:03:23;5.00;99.90
52943;DHT22;38809;53.300;6.614;2023-03-01T17:05:49;4.90;99.90
52943;DHT22;38809;53.300;6.614;2023-03-01T17:08:15;4.90;99.90
52943;DHT22;38809;53.300;6.614;2023-03-01T17:10:42;5.40;99.90
52943;DHT22;38809;53.300;6.614;2023-03-01T17:13:08;4.70;99.90
52943;DHT22;38809;53.300;6.614;2023-03-01T17:15:37;4.70;99.90
52943;DHT22;38809;53.300;6.614;2023-03-01T17:18:03;4.90;99.90
52943;DHT22;38809;53.300;6.614;2023-03-01T17:20:29;4.60;99.90
52943;DHT22;38809;53.300;6.614;2023-03-01T17:22:54;4.40;99.90
52943;DHT22;38809;53.300;6.614;2023-03-01T17:25:20;4.60;99.90
52943;DHT22;38809;53.300;6.614;2023-03-01T17:27:46;4.60;99.90
52943;DHT22;38809;53.300;6.614;2023-03-01T17:30:13;4.40;99.90
52943;DHT22;38809;53.300;6.614;2023-03-01T17:32:40;4.20;99.90
52943;DHT22;38809;53.300;6.614;2023-03-01T17:35:06;4.30;99.90
52943;DHT22;38809;53.300;6.614;2023-03-01T17:37:33;4.40;99.90
52943;DHT22;38809;53.300;6.614;2023-03-01T17:39:58;4.20;99.90
52943;DHT22;38809;53.300;6.614;2023-03-01T17:42:24;4.00;99.90
52943;DHT22;38809;53.300;6.614;2023-03-01T17:44:50;4.10;99.90
52943;DHT22;38809;53.300;6.614;2023-03-01T17:47:16;3.90;99.90
52943;DHT22;38809;53.300;6.614;2023-03-01T17:49:41;4.00;99.90
52943;DHT22;38809;53.300;6.614;2023-03-01T17:52:07;3.90;99.90
52943;DHT22;38809;53.300;6.614;2023-03-01T17:54:33;3.90;99.90
52943;DHT22;38809;53.300;6.614;2023-03-01T17:56:58;3.60;99.90
52943;DHT22;38809;53.300;6.614;2023-03-01T17:59:24;4.10;99.90
52943;DHT22;38809;53.300;6.614;2023-03-01T18:01:56;3.70;99.90